sensor_id;sensor_type;location;lat;lon;timestamp;pressure;altitude;pressure_sealevel;temperature;humidity
49216;BME280;45943;53.148;8.204;2024-01-10T00:01:45;103588.28;;;0.82;100.00
49216;BME280;45943;53.148;8.204;2024-01-10T00:04:11;103593.53;;;0.75;100.00
49216;BME280;45943;53.148;8.204;2024-01-10T00:06:37;103586.50;;;0.74;100.00
49216;BME280;45943;53.148;8.204;2024-01-10T00:09:03;103592.69;;;0.79;100.00
49216;BME280;45943;53.148;8.204;2024-01-10T00:11:30;103589.19;;;0.86;100.00
49216;BME280;45943;53.148;8.204;2024-01-10T00:13:56;103580.41;;;0.92;100.00
49216;BME280;45943;53.148;8.204;2024-01-10T00:16:28;103579.53;;;0.96;100.00
49216;BME280;45943;53.148;8.204;2024-01-10T00:18:54;103581.28;;;0.92;100.00
49216;BME280;45943;53.148;8.204;2024-01-10T00:21:20;103571.56;;;0.83;100.00
49216;BME280;45943;53.148;8.204;2024-01-10T00:23:46;103568.00;;;0.78;100.00
49216;BME280;45943;53.148;8.204;2024-01-10T00:26:12;103561.84;;;0.76;100.00
49216;BME280;45943;53.148;8.204;2024-01-10T00:28:38;103560.03;;;0.66;100.00
49216;BME280;45943;53.148;8.204;2024-01-10T00:31:04;103549.41;;;0.55;100.00
49216;BME280;45943;53.148;8.204;2024-01-10T00:33:30;103549.44;;;0.57;100.00
49216;BME280;45943;53.148;8.204;2024-01-10T00:35:56;103545.94;;;0.66;100.00
49216;BME280;45943;53.148;8.204;2024-01-10T00:38:22;103539.78;;;0.62;100.00
49216;BME280;45943;53.148;8.204;2024-01-10T00:40:48;103534.50;;;0.62;100.00
49216;BME280;45943;53.148;8.204;2024-01-10T00:43:14;103537.13;;;0.68;100.00
49216;BME280;45943;53.148;8.204;2024-01-10T00:45:40;103545.09;;;0.71;100.00
49216;BME280;45943;53.148;8.204;2024-01-10T00:48:06;103536.28;;;0.74;100.00
49216;BME280;45943;53.148;8.204;2024-01-10T00:50:32;103528.38;;;0.75;100.00
49216;BME280;45943;53.148;8.204;2024-01-10T00:52:58;103529.25;;;0.71;100.00
49216;BME280;45943;53.148;8.204;2024-01-10T00:55:24;103531.84;;;0.64;100.00
49216;BME280;45943;53.148;8.204;2024-01-10T00:57:50;103530.06;;;0.55;100.00
49216;BME280;45943;53.148;8.204;2024-01-10T01:00:16;103524.78;;;0.52;100.00
49216;BME280;45943;53.148;8.204;2024-01-10T01:02:42;103528.28;;;0.54;100.00
49216;BME280;45943;53.148;8.204;2024-01-10T01:05:08;103523.06;;;0.60;100.00
49216;BME280;45943;53.148;8.204;2024-01-10T01:07:34;103526.56;;;0.65;100.00
49216;BME280;45943;53.148;8.204;2024-01-10T01:10:01;103524.81;;;0.63;100.00
49216;BME280;45943;53.148;8.204;2024-01-10T01:12:28;103525.63;;;0.48;100.00
49216;BME280;45943;53.148;8.204;2024-01-10T01:14:54;103520.34;;;0.45;100.00
49216;BME280;45943;53.148;8.204;2024-01-10T01:17:20;103519.44;;;0.44;100.00
49216;BME280;45943;53.148;8.204;2024-01-10T01:19:46;103519.44;;;0.49;100.00
49216;BME280;45943;53.148;8.204;2024-01-10T01:22:12;103527.41;;;0.53;100.00
49216;BME280;45943;53.148;8.204;2024-01-10T01:24:38;103527.41;;;0.56;100.00
49216;BME280;45943;53.148;8.204;2024-01-10T01:27:04;103534.50;;;0.64;100.00
49216;BME280;45943;53.148;8.204;2024-01-10T01:29:30;103535.38;;;0.64;100.00
49216;BME280;45943;53.148;8.204;2024-01-10T01:31:56;103535.34;;;0.53;100.00
49216;BME280;45943;53.148;8.204;2024-01-10T01:34:22;103537.06;;;0.47;100.00
49216;BME280;45943;53.148;8.204;2024-01-10T01:36:48;103544.97;;;0.42;100.00
49216;BME280;45943;53.148;8.204;2024-01-10T01:39:17;103541.44;;;0.42;100.00
49216;BME280;45943;53.148;8.204;2024-01-10T01:41:44;103531.78;;;0.41;100.00
49216;BME280;45943;53.148;8.204;2024-01-10T01:44:10;103539.69;;;0.42;100.00
49216;BME280;45943;53.148;8.204;2024-01-10T01:46:36;103537.06;;;0.44;100.00
49216;BME280;45943;53.148;8.204;2024-01-10T01:49:03;103535.25;;;0.37;100.00
49216;BME280;45943;53.148;8.204;2024-01-10T01:51:29;103541.41;;;0.30;100.00
49216;BME280;45943;53.148;8.204;2024-01-10T01:53:57;103535.25;;;0.32;100.00
49216;BME280;45943;53.148;8.204;2024-01-10T01:56:23;103544.03;;;0.36;100.00
49216;BME280;45943;53.148;8.204;2024-01-10T01:58:50;103546.69;;;0.31;100.00
49216;BME280;45943;53.148;8.204;2024-01-10T02:01:17;103548.38;;;0.26;100.00
49216;BME280;45943;53.148;8.204;2024-01-10T02:03:47;103544.88;;;0.24;100.00
49216;BME280;45943;53.148;8.204;2024-01-10T02:06:13;103544.81;;;0.19;100.00
49216;BME280;45943;53.148;8.204;2024-01-10T02:08:39;103541.34;;;0.22;100.00
49216;BME280;45943;53.148;8.204;2024-01-10T02:11:05;103549.25;;;0.23;100.00
49216;BME280;45943;53.148;8.204;2024-01-10T02:13:32;103541.34;;;0.28;100.00
49216;BME280;45943;53.148;8.204;2024-01-10T02:15:59;103537.81;;;0.24;100.00
49216;BME280;45943;53.148;8.204;2024-01-10T02:18:25;103535.19;;;0.27;100.00
49216;BME280;45943;53.148;8.204;2024-01-10T02:20:51;103534.34;;;0.30;100.00
49216;BME280;45943;53.148;8.204;2024-01-10T02:23:18;103523.81;;;0.33;100.00
49216;BME280;45943;53.148;8.204;2024-01-10T02:25:44;103524.69;;;0.34;100.00
49216;BME280;45943;53.148;8.204;2024-01-10T02:28:10;103524.63;;;0.27;100.00
49216;BME280;45943;53.148;8.204;2024-01-10T02:30:36;103515.84;;;0.27;100.00
49216;BME280;45943;53.148;8.204;2024-01-10T02:33:03;103517.59;;;0.28;100.00
49216;BME280;45943;53.148;8.204;2024-01-10T02:35:29;103508.78;;;0.24;100.00
49216;BME280;45943;53.148;8.204;2024-01-10T02:37:58;103511.44;;;0.21;100.00
49216;BME280;45943;53.148;8.204;2024-01-10T02:40:24;103518.44;;;0.19;100.00
49216;BME280;45943;53.148;8.204;2024-01-10T02:42:50;103507.03;;;0.25;100.00
49216;BME280;45943;53.148;8.204;2024-01-10T02:45:17;103507.91;;;0.28;100.00
49216;BME280;45943;53.148;8.204;2024-01-10T02:47:44;103508.78;;;0.24;100.00
49216;BME280;45943;53.148;8.204;2024-01-10T02:50:11;103501.75;;;0.25;100.00
49216;BME280;45943;53.148;8.204;2024-01-10T02:52:37;103501.69;;;0.11;100.00
49216;BME280;45943;53.148;8.204;2024-01-10T02:55:03;103506.03;;;0.06;100.00
49216;BME280;45943;53.148;8.204;2024-01-10T02:57:29;103498.19;;;0.12;100.00
49216;BME280;45943;53.148;8.204;2024-01-10T02:59:55;103504.38;;;0.23;100.00
49216;BME280;45943;53.148;8.204;2024-01-10T03:02:21;103504.38;;;0.23;100.00
49216;BME280;45943;53.148;8.204;2024-01-10T03:04:49;103497.31;;;0.13;100.00
49216;BME280;45943;53.148;8.204;2024-01-10T03:07:15;103509.63;;;0.13;100.00
49216;BME280;45943;53.148;8.204;2024-01-10T03:09:41;103503.47;;;0.12;100.00
49216;BME280;45943;53.148;8.204;2024-01-10T03:12:08;103496.41;;;0.13;100.00
49216;BME280;45943;53.148;8.204;2024-01-10T03:14:36;103498.13;;;0.06;100.00
49216;BME280;45943;53.148;8.204;2024-01-10T03:17:02;103498.88;;;-0.15;100.00
49216;BME280;45943;53.148;8.204;2024-01-10T03:19:28;103496.31;;;-0.09;100.00
49216;BME280;45943;53.148;8.204;2024-01-10T03:21:54;103488.38;;;-0.09;100.00
49216;BME280;45943;53.148;8.204;2024-01-10T03:24:20;103491.91;;;-0.07;100.00
49216;BME280;45943;53.148;8.204;2024-01-10T03:26:49;103486.66;;;-0.01;100.00
49216;BME280;45943;53.148;8.204;2024-01-10T03:29:15;103497.19;;;-0.02;100.00
49216;BME280;45943;53.148;8.204;2024-01-10T03:31:41;103491.91;;;-0.04;100.00
49216;BME280;45943;53.148;8.204;2024-01-10T03:34:07;103486.63;;;-0.05;100.00
49216;BME280;45943;53.148;8.204;2024-01-10T03:36:33;103485.75;;;-0.03;100.00
49216;BME280;45943;53.148;8.204;2024-01-10T03:38:59;103480.47;;;-0.06;100.00
49216;BME280;45943;53.148;8.204;2024-01-10T03:41:26;103483.13;;;-0.01;100.00
49216;BME280;45943;53.148;8.204;2024-01-10T03:43:52;103473.50;;;0.04;100.00
49216;BME280;45943;53.148;8.204;2024-01-10T03:46:18;103484.00;;;-0.04;100.00
49216;BME280;45943;53.148;8.204;2024-01-10T03:48:44;103481.34;;;-0.07;100.00
49216;BME280;45943;53.148;8.204;2024-01-10T03:51:14;103477.84;;;-0.07;100.00
49216;BME280;45943;53.148;8.204;2024-01-10T03:53:44;103479.59;;;-0.05;100.00
49216;BME280;45943;53.148;8.204;2024-01-10T03:56:14;103475.25;;;0.04;100.00
49216;BME280;45943;53.148;8.204;2024-01-10T03:58:40;103481.31;;;-0.14;100.00
49216;BME280;45943;53.148;8.204;2024-01-10T04:01:09;103486.50;;;-0.23;100.00
49216;BME280;45943;53.148;8.204;2024-01-10T04:03:36;103481.22;;;-0.25;100.00
49216;BME280;45943;53.148;8.204;2024-01-10T04:06:02;103482.13;;;-0.23;100.00
49216;BME280;45943;53.148;8.204;2024-01-10T04:08:28;103485.63;;;-0.22;100.00
49216;BME280;45943;53.148;8.204;2024-01-10T04:10:54;103476.88;;;-0.18;100.00
49216;BME280;45943;53.148;8.204;2024-01-10T04:13:20;103480.38;;;-0.22;100.00
49216;BME280;45943;53.148;8.204;2024-01-10T04:15:46;103471.56;;;-0.27;100.00
49216;BME280;45943;53.148;8.204;2024-01-10T04:18:12;103470.56;;;-0.40;100.00
49216;BME280;45943;53.148;8.204;2024-01-10T04:20:38;103478.44;;;-0.46;100.00
49216;BME280;45943;53.148;8.204;2024-01-10T04:23:04;103484.50;;;-0.58;100.00
49216;BME280;45943;53.148;8.204;2024-01-10T04:25:30;103482.63;;;-0.70;100.00
49216;BME280;45943;53.148;8.204;2024-01-10T04:27:58;103476.47;;;-0.70;100.00
49216;BME280;45943;53.148;8.204;2024-01-10T04:30:24;103478.31;;;-0.60;100.00
49216;BME280;45943;53.148;8.204;2024-01-10T04:32:49;103488.88;;;-0.60;100.00
49216;BME280;45943;53.148;8.204;2024-01-10T04:35:15;103484.50;;;-0.58;100.00
49216;BME280;45943;53.148;8.204;2024-01-10T04:37:41;103486.31;;;-0.52;100.00
49216;BME280;45943;53.148;8.204;2024-01-10T04:40:08;103491.56;;;-0.52;100.00
49216;BME280;45943;53.148;8.204;2024-01-10T04:42:34;103483.69;;;-0.49;100.00
49216;BME280;45943;53.148;8.204;2024-01-10T04:45:00;103489.00;;;-0.48;100.00
49216;BME280;45943;53.148;8.204;2024-01-10T04:47:26;103482.84;;;-0.44;100.00
49216;BME280;45943;53.148;8.204;2024-01-10T04:49:52;103476.72;;;-0.40;100.00
49216;BME280;45943;53.148;8.204;2024-01-10T04:52:18;103474.13;;;-0.34;100.00
49216;BME280;45943;53.148;8.204;2024-01-10T04:54:44;103478.47;;;-0.40;100.00
49216;BME280;45943;53.148;8.204;2024-01-10T04:57:10;103470.56;;;-0.42;100.00
49216;BME280;45943;53.148;8.204;2024-01-10T04:59:36;103463.53;;;-0.40;100.00
49216;BME280;45943;53.148;8.204;2024-01-10T05:02:02;103460.97;;;-0.31;100.00
49216;BME280;45943;53.148;8.204;2024-01-10T05:04:28;103460.97;;;-0.31;100.00
49216;BME280;45943;53.148;8.204;2024-01-10T05:06:54;103456.53;;;-0.38;100.00
49216;BME280;45943;53.148;8.204;2024-01-10T05:09:20;103460.00;;;-0.42;100.00
49216;BME280;45943;53.148;8.204;2024-01-10T05:11:46;103459.13;;;-0.41;100.00
49216;BME280;45943;53.148;8.204;2024-01-10T05:14:14;103456.44;;;-0.51;100.00
49216;BME280;45943;53.148;8.204;2024-01-10T05:16:40;103456.41;;;-0.57;100.00
49216;BME280;45943;53.148;8.204;2024-01-10T05:19:06;103459.09;;;-0.48;100.00
49216;BME280;45943;53.148;8.204;2024-01-10T05:21:32;103451.22;;;-0.44;100.00
49216;BME280;45943;53.148;8.204;2024-01-10T05:23:58;103445.88;;;-0.50;100.00
49216;BME280;45943;53.148;8.204;2024-01-10T05:26:24;103449.41;;;-0.49;100.00
49216;BME280;45943;53.148;8.204;2024-01-10T05:28:50;103451.16;;;-0.50;100.00
49216;BME280;45943;53.148;8.204;2024-01-10T05:31:16;103450.28;;;-0.52;100.00
49216;BME280;45943;53.148;8.204;2024-01-10T05:33:42;103447.69;;;-0.47;100.00
49216;BME280;45943;53.148;8.204;2024-01-10T05:36:09;103451.16;;;-0.51;100.00
49216;BME280;45943;53.148;8.204;2024-01-10T05:38:41;103448.50;;;-0.54;100.00
49216;BME280;45943;53.148;8.204;2024-01-10T05:41:07;103449.38;;;-0.57;100.00
49216;BME280;45943;53.148;8.204;2024-01-10T05:43:33;103448.50;;;-0.56;100.00
49216;BME280;45943;53.148;8.204;2024-01-10T05:45:59;103457.31;;;-0.52;100.00
49216;BME280;45943;53.148;8.204;2024-01-10T05:48:25;103461.72;;;-0.50;100.00
49216;BME280;45943;53.148;8.204;2024-01-10T05:50:51;103452.97;;;-0.44;100.00
49216;BME280;45943;53.148;8.204;2024-01-10T05:53:17;103458.25;;;-0.41;100.00
49216;BME280;45943;53.148;8.204;2024-01-10T05:55:43;103460.94;;;-0.34;100.00
49216;BME280;45943;53.148;8.204;2024-01-10T05:58:12;103463.59;;;-0.37;100.00
49216;BME280;45943;53.148;8.204;2024-01-10T06:00:38;103460.09;;;-0.31;100.00
49216;BME280;45943;53.148;8.204;2024-01-10T06:03:04;103456.56;;;-0.32;100.00
49216;BME280;45943;53.148;8.204;2024-01-10T06:05:30;103457.44;;;-0.33;100.00
49216;BME280;45943;53.148;8.204;2024-01-10T06:07:57;103453.03;;;-0.35;100.00
49216;BME280;45943;53.148;8.204;2024-01-10T06:10:23;103448.66;;;-0.35;100.00
49216;BME280;45943;53.148;8.204;2024-01-10T06:12:49;103451.28;;;-0.36;100.00
49216;BME280;45943;53.148;8.204;2024-01-10T06:15:15;103450.41;;;-0.35;100.00
49216;BME280;45943;53.148;8.204;2024-01-10T06:17:41;103452.91;;;-0.50;100.00
49216;BME280;45943;53.148;8.204;2024-01-10T06:20:07;103456.34;;;-0.59;100.00
49216;BME280;45943;53.148;8.204;2024-01-10T06:22:34;103457.34;;;-0.48;100.00
49216;BME280;45943;53.148;8.204;2024-01-10T06:25:00;103452.09;;;-0.45;100.00
49216;BME280;45943;53.148;8.204;2024-01-10T06:27:26;103451.22;;;-0.44;100.00
49216;BME280;45943;53.148;8.204;2024-01-10T06:29:52;103447.75;;;-0.38;100.00
49216;BME280;45943;53.148;8.204;2024-01-10T06:32:18;103449.53;;;-0.30;100.00
49216;BME280;45943;53.148;8.204;2024-01-10T06:34:44;103450.34;;;-0.43;100.00
49216;BME280;45943;53.148;8.204;2024-01-10T06:37:10;103457.31;;;-0.49;100.00
49216;BME280;45943;53.148;8.204;2024-01-10T06:39:36;103453.84;;;-0.48;100.00
49216;BME280;45943;53.148;8.204;2024-01-10T06:42:02;103454.72;;;-0.43;100.00
49216;BME280;45943;53.148;8.204;2024-01-10T06:44:31;103460.00;;;-0.43;100.00
49216;BME280;45943;53.148;8.204;2024-01-10T06:46:57;103460.06;;;-0.39;100.00
49216;BME280;45943;53.148;8.204;2024-01-10T06:49:23;103458.31;;;-0.32;100.00
49216;BME280;45943;53.148;8.204;2024-01-10T06:51:49;103458.31;;;-0.34;100.00
49216;BME280;45943;53.148;8.204;2024-01-10T06:54:15;103459.25;;;-0.27;100.00
49216;BME280;45943;53.148;8.204;2024-01-10T06:56:41;103461.88;;;-0.25;100.00
49216;BME280;45943;53.148;8.204;2024-01-10T06:59:07;103459.25;;;-0.27;100.00
49216;BME280;45943;53.148;8.204;2024-01-10T07:01:33;103467.19;;;-0.22;100.00
49216;BME280;45943;53.148;8.204;2024-01-10T07:03:59;103469.00;;;-0.14;100.00
49216;BME280;45943;53.148;8.204;2024-01-10T07:06:25;103464.59;;;-0.12;100.00
49216;BME280;45943;53.148;8.204;2024-01-10T07:08:52;103461.13;;;-0.08;100.00
49216;BME280;45943;53.148;8.204;2024-01-10T07:11:18;103463.78;;;-0.06;100.00
49216;BME280;45943;53.148;8.204;2024-01-10T07:13:45;103466.41;;;-0.08;100.00
49216;BME280;45943;53.148;8.204;2024-01-10T07:16:11;103474.28;;;-0.14;100.00
49216;BME280;45943;53.148;8.204;2024-01-10T07:18:40;103468.06;;;-0.20;100.00
49216;BME280;45943;53.148;8.204;2024-01-10T07:21:08;103465.41;;;-0.20;100.00
49216;BME280;45943;53.148;8.204;2024-01-10T07:23:34;103467.19;;;-0.21;100.00
49216;BME280;45943;53.148;8.204;2024-01-10T07:26:01;103472.47;;;-0.21;100.00
49216;BME280;45943;53.148;8.204;2024-01-10T07:28:27;103470.69;;;-0.26;100.00
49216;BME280;45943;53.148;8.204;2024-01-10T07:30:53;103462.72;;;-0.31;100.00
49216;BME280;45943;53.148;8.204;2024-01-10T07:33:19;103465.34;;;-0.33;100.00
49216;BME280;45943;53.148;8.204;2024-01-10T07:35:45;103465.41;;;-0.28;100.00
49216;BME280;45943;53.148;8.204;2024-01-10T07:38:11;103462.81;;;-0.19;100.00
49216;BME280;45943;53.148;8.204;2024-01-10T07:40:37;103476.03;;;-0.14;100.00
49216;BME280;45943;53.148;8.204;2024-01-10T07:43:03;103475.13;;;-0.18;100.00
49216;BME280;45943;53.148;8.204;2024-01-10T07:45:29;103483.06;;;-0.16;100.00
49216;BME280;45943;53.148;8.204;2024-01-10T07:47:55;103481.31;;;-0.13;100.00
49216;BME280;45943;53.148;8.204;2024-01-10T07:50:22;103480.44;;;-0.12;100.00
49216;BME280;45943;53.148;8.204;2024-01-10T07:52:52;103485.69;;;-0.12;100.00
49216;BME280;45943;53.148;8.204;2024-01-10T07:55:18;103485.75;;;-0.09;100.00
49216;BME280;45943;53.148;8.204;2024-01-10T07:57:44;103488.38;;;-0.09;100.00
49216;BME280;45943;53.148;8.204;2024-01-10T08:00:10;103496.25;;;-0.13;100.00
49216;BME280;45943;53.148;8.204;2024-01-10T08:02:39;103488.31;;;-0.16;100.00
49216;BME280;45943;53.148;8.204;2024-01-10T08:05:06;103485.69;;;-0.15;100.00
49216;BME280;45943;53.148;8.204;2024-01-10T08:07:36;103481.34;;;-0.08;100.00
49216;BME280;45943;53.148;8.204;2024-01-10T08:10:08;103481.34;;;-0.07;100.00
49216;BME280;45943;53.148;8.204;2024-01-10T08:12:39;103479.59;;;-0.08;100.00
49216;BME280;45943;53.148;8.204;2024-01-10T08:15:07;103480.41;;;-0.16;100.00
49216;BME280;45943;53.148;8.204;2024-01-10T08:17:33;103481.19;;;-0.31;100.00
49216;BME280;45943;53.148;8.204;2024-01-10T08:20:00;103486.47;;;-0.30;100.00
49216;BME280;45943;53.148;8.204;2024-01-10T08:22:26;103481.22;;;-0.26;100.00
49216;BME280;45943;53.148;8.204;2024-01-10T08:24:52;103477.72;;;-0.28;100.00
49216;BME280;45943;53.148;8.204;2024-01-10T08:27:18;103477.72;;;-0.25;100.00
49216;BME280;45943;53.148;8.204;2024-01-10T08:29:44;103476.84;;;-0.24;100.00
49216;BME280;45943;53.148;8.204;2024-01-10T08:32:10;103480.38;;;-0.21;100.00
49216;BME280;45943;53.148;8.204;2024-01-10T08:34:36;103474.22;;;-0.21;100.00
49216;BME280;45943;53.148;8.204;2024-01-10T08:37:02;103485.69;;;-0.19;100.00
49216;BME280;45943;53.148;8.204;2024-01-10T08:39:29;103488.34;;;-0.13;100.00
49216;BME280;45943;53.148;8.204;2024-01-10T08:41:56;103478.72;;;-0.08;100.00
49216;BME280;45943;53.148;8.204;2024-01-10T08:44:23;103476.97;;;-0.05;100.00
49216;BME280;45943;53.148;8.204;2024-01-10T08:46:49;103475.16;;;-0.15;100.00
49216;BME280;45943;53.148;8.204;2024-01-10T08:49:17;103473.44;;;-0.10;100.00
49216;BME280;45943;53.148;8.204;2024-01-10T08:51:43;103473.44;;;-0.05;100.00
49216;BME280;45943;53.148;8.204;2024-01-10T08:54:10;103471.72;;;0.02;100.00
49216;BME280;45943;53.148;8.204;2024-01-10T08:56:38;103466.47;;;0.05;100.00
49216;BME280;45943;53.148;8.204;2024-01-10T08:59:04;103462.94;;;0.07;100.00
49216;BME280;45943;53.148;8.204;2024-01-10T09:01:30;103462.06;;;0.08;100.00
49216;BME280;45943;53.148;8.204;2024-01-10T09:03:56;103457.66;;;0.04;100.00
49216;BME280;45943;53.148;8.204;2024-01-10T09:06:22;103469.94;;;-0.01;100.00
49216;BME280;45943;53.148;8.204;2024-01-10T09:08:48;103474.31;;;-0.09;100.00
49216;BME280;45943;53.148;8.204;2024-01-10T09:11:14;103469.00;;;-0.12;100.00
49216;BME280;45943;53.148;8.204;2024-01-10T09:13:40;103456.72;;;-0.09;100.00
49216;BME280;45943;53.148;8.204;2024-01-10T09:16:06;103461.97;;;-0.15;100.00
49216;BME280;45943;53.148;8.204;2024-01-10T09:18:32;103457.63;;;-0.07;100.00
49216;BME280;45943;53.148;8.204;2024-01-10T09:20:58;103467.28;;;-0.03;100.00
49216;BME280;45943;53.148;8.204;2024-01-10T09:23:24;103469.91;;;-0.07;100.00
49216;BME280;45943;53.148;8.204;2024-01-10T09:25:50;103475.25;;;0.01;100.00
49216;BME280;45943;53.148;8.204;2024-01-10T09:28:16;103470.88;;;0.09;100.00
49216;BME280;45943;53.148;8.204;2024-01-10T09:30:42;103463.00;;;0.19;100.00
49216;BME280;45943;53.148;8.204;2024-01-10T09:33:08;103462.16;;;0.23;100.00
49216;BME280;45943;53.148;8.204;2024-01-10T09:35:34;103463.09;;;0.30;100.00
49216;BME280;45943;53.148;8.204;2024-01-10T09:38:00;103464.00;;;0.40;100.00
49216;BME280;45943;53.148;8.204;2024-01-10T09:40:26;103462.25;;;0.40;100.00
49216;BME280;45943;53.148;8.204;2024-01-10T09:42:54;103460.53;;;0.59;100.00
49216;BME280;45943;53.148;8.204;2024-01-10T09:45:20;103457.03;;;0.62;100.00
49216;BME280;45943;53.148;8.204;2024-01-10T09:47:48;103460.53;;;0.59;100.00
49216;BME280;45943;53.148;8.204;2024-01-10T09:50:17;103461.34;;;0.47;100.00
49216;BME280;45943;53.148;8.204;2024-01-10T09:52:53;103455.19;;;0.45;100.00
49216;BME280;45943;53.148;8.204;2024-01-10T09:55:24;103457.88;;;0.54;100.00
49216;BME280;45943;53.148;8.204;2024-01-10T09:57:54;103451.72;;;0.51;100.00
49216;BME280;45943;53.148;8.204;2024-01-10T10:00:20;103457.00;;;0.58;100.00
49216;BME280;45943;53.148;8.204;2024-01-10T10:02:49;103456.13;;;0.66;100.00
49216;BME280;45943;53.148;8.204;2024-01-10T10:05:17;103458.78;;;0.69;100.00
49216;BME280;45943;53.148;8.204;2024-01-10T10:07:50;103454.38;;;0.68;100.00
49216;BME280;45943;53.148;8.204;2024-01-10T10:10:19;103458.78;;;0.69;100.00
49216;BME280;45943;53.148;8.204;2024-01-10T10:12:46;103458.78;;;0.60;100.00
49216;BME280;45943;53.148;8.204;2024-01-10T10:15:20;103456.13;;;0.67;100.00
49216;BME280;45943;53.148;8.204;2024-01-10T10:17:48;103457.03;;;0.78;100.00
49216;BME280;45943;53.148;8.204;2024-01-10T10:20:22;103456.19;;;0.93;100.00
49216;BME280;45943;53.148;8.204;2024-01-10T10:25:34;103454.44;;;0.97;99.26
49216;BME280;45943;53.148;8.204;2024-01-10T10:28:03;103455.34;;;1.09;100.00
49216;BME280;45943;53.148;8.204;2024-01-10T10:30:31;103457.13;;;1.20;98.23
49216;BME280;45943;53.148;8.204;2024-01-10T10:33:01;103452.69;;;1.14;93.61
49216;BME280;45943;53.148;8.204;2024-01-10T10:35:29;103457.97;;;1.15;92.91
49216;BME280;45943;53.148;8.204;2024-01-10T10:37:55;103455.34;;;1.38;93.81
49216;BME280;45943;53.148;8.204;2024-01-10T10:40:21;103445.63;;;1.63;94.06
49216;BME280;45943;53.148;8.204;2024-01-10T10:42:48;103445.63;;;1.69;91.46
49216;BME280;45943;53.148;8.204;2024-01-10T10:45:19;103444.69;;;1.81;89.76
49216;BME280;45943;53.148;8.204;2024-01-10T10:47:54;103441.16;;;1.97;87.96
49216;BME280;45943;53.148;8.204;2024-01-10T10:50:23;103434.09;;;1.92;84.48
49216;BME280;45943;53.148;8.204;2024-01-10T10:52:51;103435.00;;;1.82;84.12
49216;BME280;45943;53.148;8.204;2024-01-10T10:55:18;103434.16;;;1.54;83.51
49216;BME280;45943;53.148;8.204;2024-01-10T10:57:45;103423.56;;;1.69;84.84
49216;BME280;45943;53.148;8.204;2024-01-10T11:00:13;103426.22;;;1.46;84.33
49216;BME280;45943;53.148;8.204;2024-01-10T11:02:42;103431.50;;;1.57;84.90
49216;BME280;45943;53.148;8.204;2024-01-10T11:05:09;103428.00;;;1.58;84.06
49216;BME280;45943;53.148;8.204;2024-01-10T11:07:36;103421.84;;;1.51;82.93
49216;BME280;45943;53.148;8.204;2024-01-10T11:10:08;103420.06;;;1.44;81.36
49216;BME280;45943;53.148;8.204;2024-01-10T11:12:55;103420.97;;;1.32;82.45
49216;BME280;45943;53.148;8.204;2024-01-10T11:21:11;103404.22;;;1.36;78.88
49216;BME280;45943;53.148;8.204;2024-01-10T11:23:49;103410.38;;;1.49;78.41
49216;BME280;45943;53.148;8.204;2024-01-10T11:26:19;103408.56;;;1.65;77.89
49216;BME280;45943;53.148;8.204;2024-01-10T11:28:45;103402.44;;;1.54;74.31
49216;BME280;45943;53.148;8.204;2024-01-10T11:31:13;103407.75;;;1.48;75.12
49216;BME280;45943;53.148;8.204;2024-01-10T11:33:41;103398.03;;;1.53;75.98
49216;BME280;45943;53.148;8.204;2024-01-10T11:41:27;103401.50;;;1.71;80.07
49216;BME280;45943;53.148;8.204;2024-01-10T11:46:46;103402.41;;;1.57;76.90
49216;BME280;45943;53.148;8.204;2024-01-10T11:49:17;103398.88;;;1.64;77.15
49216;BME280;45943;53.148;8.204;2024-01-10T11:51:48;103396.22;;;1.70;78.42
49216;BME280;45943;53.148;8.204;2024-01-10T11:57:13;103392.63;;;1.92;77.38
49216;BME280;45943;53.148;8.204;2024-01-10T11:59:44;103400.59;;;1.83;75.97
49216;BME280;45943;53.148;8.204;2024-01-10T12:02:11;103392.69;;;1.74;75.92
49216;BME280;45943;53.148;8.204;2024-01-10T12:04:39;103390.03;;;1.80;76.33
49216;BME280;45943;53.148;8.204;2024-01-10T12:07:07;103392.63;;;1.91;74.48
49216;BME280;45943;53.148;8.204;2024-01-10T12:09:34;103380.22;;;2.04;73.91
49216;BME280;45943;53.148;8.204;2024-01-10T12:12:02;103381.94;;;2.14;73.03
49216;BME280;45943;53.148;8.204;2024-01-10T12:14:28;103387.19;;;2.23;69.78
49216;BME280;45943;53.148;8.204;2024-01-10T12:16:55;103380.09;;;2.25;68.05
49216;BME280;45943;53.148;8.204;2024-01-10T12:19:22;103379.22;;;2.30;66.85
49216;BME280;45943;53.148;8.204;2024-01-10T12:21:48;103378.34;;;2.25;63.98
49216;BME280;45943;53.148;8.204;2024-01-10T12:24:15;103373.03;;;2.25;63.35
49216;BME280;45943;53.148;8.204;2024-01-10T12:26:44;103366.81;;;2.36;63.32
49216;BME280;45943;53.148;8.204;2024-01-10T12:29:11;103366.72;;;2.51;62.61
49216;BME280;45943;53.148;8.204;2024-01-10T12:31:37;103358.59;;;2.78;63.45
49216;BME280;45943;53.148;8.204;2024-01-10T12:34:11;103360.88;;;3.20;62.44
49216;BME280;45943;53.148;8.204;2024-01-10T12:36:44;103357.81;;;3.59;59.82
49216;BME280;45943;53.148;8.204;2024-01-10T12:39:12;103349.31;;;4.02;57.11
49216;BME280;45943;53.148;8.204;2024-01-10T12:41:48;103353.22;;;4.41;55.29
49216;BME280;45943;53.148;8.204;2024-01-10T12:44:16;103352.78;;;4.70;54.34
49216;BME280;45943;53.148;8.204;2024-01-10T12:46:51;103347.91;;;4.97;53.41
49216;BME280;45943;53.148;8.204;2024-01-10T12:49:22;103338.09;;;5.02;53.04
49216;BME280;45943;53.148;8.204;2024-01-10T12:51:48;103352.13;;;5.08;52.94
49216;BME280;45943;53.148;8.204;2024-01-10T12:54:15;103338.50;;;5.27;53.73
49216;BME280;45943;53.148;8.204;2024-01-10T12:56:42;103341.56;;;5.53;53.55
49216;BME280;45943;53.148;8.204;2024-01-10T12:59:08;103339.69;;;5.58;53.74
49216;BME280;45943;53.148;8.204;2024-01-10T13:01:35;103333.06;;;5.34;54.03
49216;BME280;45943;53.148;8.204;2024-01-10T13:04:01;103342.28;;;5.15;53.88
49216;BME280;45943;53.148;8.204;2024-01-10T13:06:27;103346.97;;;5.48;53.40